sensor_id;sensor_type;location;lat;lon;timestamp;temperature;humidity
76897;SHT30;65856;52.178;21.176;2024-03-02T00:00:23;8.42;77.40
76897;SHT30;65856;52.178;21.176;2024-03-02T00:02:50;8.41;77.42
76897;SHT30;65856;52.178;21.176;2024-03-02T00:05:20;8.39;77.49
76897;SHT30;65856;52.178;21.176;2024-03-02T00:07:56;8.34;77.52
76897;SHT30;65856;52.178;21.176;2024-03-02T00:10:26;8.32;77.51
76897;SHT30;65856;52.178;21.176;2024-03-02T00:13:01;8.32;77.59
76897;SHT30;65856;52.178;21.176;2024-03-02T00:15:40;8.31;77.59
76897;SHT30;65856;52.178;21.176;2024-03-02T00:18:07;8.28;77.63
76897;SHT30;65856;52.178;21.176;2024-03-02T00:20:36;8.27;77.66
76897;SHT30;65856;52.178;21.176;2024-03-02T00:23:05;8.24;77.70
76897;SHT30;65856;52.178;21.176;2024-03-02T00:28:13;8.18;77.80
76897;SHT30;65856;52.178;21.176;2024-03-02T00:33:45;8.13;77.90
76897;SHT30;65856;52.178;21.176;2024-03-02T00:36:14;8.11;77.90
76897;SHT30;65856;52.178;21.176;2024-03-02T00:38:50;8.10;77.91
76897;SHT30;65856;52.178;21.176;2024-03-02T00:41:25;8.09;77.95
76897;SHT30;65856;52.178;21.176;2024-03-02T00:44:02;8.08;77.97
76897;SHT30;65856;52.178;21.176;2024-03-02T00:46:34;8.06;78.00
76897;SHT30;65856;52.178;21.176;2024-03-02T00:49:17;8.07;78.02
76897;SHT30;65856;52.178;21.176;2024-03-02T00:51:48;8.05;78.01
76897;SHT30;65856;52.178;21.176;2024-03-02T00:54:21;8.05;78.08
76897;SHT30;65856;52.178;21.176;2024-03-02T00:56:49;8.03;78.10
76897;SHT30;65856;52.178;21.176;2024-03-02T00:59:16;8.04;78.08
76897;SHT30;65856;52.178;21.176;2024-03-02T01:01:41;8.04;78.10
76897;SHT30;65856;52.178;21.176;2024-03-02T01:04:08;8.02;78.10
76897;SHT30;65856;52.178;21.176;2024-03-02T01:06:34;8.02;78.12
76897;SHT30;65856;52.178;21.176;2024-03-02T01:09:00;8.02;78.11
76897;SHT30;65856;52.178;21.176;2024-03-02T01:11:27;8.01;78.16
76897;SHT30;65856;52.178;21.176;2024-03-02T01:13:53;8.01;78.16
76897;SHT30;65856;52.178;21.176;2024-03-02T01:16:19;8.00;78.19
76897;SHT30;65856;52.178;21.176;2024-03-02T01:18:45;8.00;78.20
76897;SHT30;65856;52.178;21.176;2024-03-02T01:21:10;7.99;78.21
76897;SHT30;65856;52.178;21.176;2024-03-02T01:23:36;7.97;78.23
76897;SHT30;65856;52.178;21.176;2024-03-02T01:26:01;7.95;78.28
76897;SHT30;65856;52.178;21.176;2024-03-02T01:28:26;7.94;78.30
76897;SHT30;65856;52.178;21.176;2024-03-02T01:30:52;7.92;78.32
76897;SHT30;65856;52.178;21.176;2024-03-02T01:33:19;7.94;78.32
76897;SHT30;65856;52.178;21.176;2024-03-02T01:35:45;7.93;78.32
76897;SHT30;65856;52.178;21.176;2024-03-02T01:38:10;7.92;78.36
76897;SHT30;65856;52.178;21.176;2024-03-02T01:40:36;7.90;78.38
76897;SHT30;65856;52.178;21.176;2024-03-02T01:43:06;7.88;78.40
76897;SHT30;65856;52.178;21.176;2024-03-02T01:45:32;7.87;78.40
76897;SHT30;65856;52.178;21.176;2024-03-02T01:48:00;7.86;78.49
76897;SHT30;65856;52.178;21.176;2024-03-02T01:50:29;7.84;78.50
76897;SHT30;65856;52.178;21.176;2024-03-02T01:52:57;7.84;78.50
76897;SHT30;65856;52.178;21.176;2024-03-02T01:55:23;7.83;78.58
76897;SHT30;65856;52.178;21.176;2024-03-02T01:57:50;7.82;78.60
76897;SHT30;65856;52.178;21.176;2024-03-02T02:00:17;7.80;78.60
76897;SHT30;65856;52.178;21.176;2024-03-02T02:02:44;7.79;78.62
76897;SHT30;65856;52.178;21.176;2024-03-02T02:05:09;7.78;78.66
76897;SHT30;65856;52.178;21.176;2024-03-02T02:07:35;7.77;78.70
76897;SHT30;65856;52.178;21.176;2024-03-02T02:10:01;7.77;78.70
76897;SHT30;65856;52.178;21.176;2024-03-02T02:12:27;7.74;78.71
76897;SHT30;65856;52.178;21.176;2024-03-02T02:14:52;7.73;78.80
76897;SHT30;65856;52.178;21.176;2024-03-02T02:17:18;7.72;78.80
76897;SHT30;65856;52.178;21.176;2024-03-02T02:19:44;7.71;78.84
76897;SHT30;65856;52.178;21.176;2024-03-02T02:22:09;7.69;78.87
76897;SHT30;65856;52.178;21.176;2024-03-02T02:24:36;7.71;78.85
76897;SHT30;65856;52.178;21.176;2024-03-02T02:27:06;7.71;78.87
76897;SHT30;65856;52.178;21.176;2024-03-02T02:29:32;7.70;78.88
76897;SHT30;65856;52.178;21.176;2024-03-02T02:31:57;7.66;78.90
76897;SHT30;65856;52.178;21.176;2024-03-02T02:34:23;7.64;78.96
76897;SHT30;65856;52.178;21.176;2024-03-02T02:36:48;7.62;79.00
76897;SHT30;65856;52.178;21.176;2024-03-02T02:39:15;7.61;79.00
76897;SHT30;65856;52.178;21.176;2024-03-02T02:41:42;7.59;79.08
76897;SHT30;65856;52.178;21.176;2024-03-02T02:44:08;7.57;79.10
76897;SHT30;65856;52.178;21.176;2024-03-02T02:46:33;7.57;79.12
76897;SHT30;65856;52.178;21.176;2024-03-02T02:48:59;7.56;79.17
76897;SHT30;65856;52.178;21.176;2024-03-02T02:51:24;7.55;79.18
76897;SHT30;65856;52.178;21.176;2024-03-02T02:53:52;7.53;79.20
76897;SHT30;65856;52.178;21.176;2024-03-02T02:56:18;7.51;79.20
76897;SHT30;65856;52.178;21.176;2024-03-02T02:58:43;7.49;79.28
76897;SHT30;65856;52.178;21.176;2024-03-02T03:01:08;7.49;79.28
76897;SHT30;65856;52.178;21.176;2024-03-02T03:03:34;7.48;79.30
76897;SHT30;65856;52.178;21.176;2024-03-02T03:06:00;7.46;79.30
76897;SHT30;65856;52.178;21.176;2024-03-02T03:08:25;7.47;79.30
76897;SHT30;65856;52.178;21.176;2024-03-02T03:10:50;7.45;79.31
76897;SHT30;65856;52.178;21.176;2024-03-02T03:13:16;7.43;79.40
76897;SHT30;65856;52.178;21.176;2024-03-02T03:15:41;7.43;79.39
76897;SHT30;65856;52.178;21.176;2024-03-02T03:18:07;7.40;79.40
76897;SHT30;65856;52.178;21.176;2024-03-02T03:20:33;7.37;79.47
76897;SHT30;65856;52.178;21.176;2024-03-02T03:22:58;7.36;79.50
76897;SHT30;65856;52.178;21.176;2024-03-02T03:25:24;7.36;79.50
76897;SHT30;65856;52.178;21.176;2024-03-02T03:27:50;7.33;79.48
76897;SHT30;65856;52.178;21.176;2024-03-02T03:30:17;7.32;79.55
76897;SHT30;65856;52.178;21.176;2024-03-02T03:32:43;7.32;79.52
76897;SHT30;65856;52.178;21.176;2024-03-02T03:35:09;7.31;79.58
76897;SHT30;65856;52.178;21.176;2024-03-02T03:37:34;7.30;79.63
76897;SHT30;65856;52.178;21.176;2024-03-02T03:40:01;7.32;79.94
76897;SHT30;65856;52.178;21.176;2024-03-02T03:42:28;7.43;79.97
76897;SHT30;65856;52.178;21.176;2024-03-02T03:44:53;7.53;79.71
76897;SHT30;65856;52.178;21.176;2024-03-02T03:47:19;7.53;79.45
76897;SHT30;65856;52.178;21.176;2024-03-02T03:49:45;7.49;79.43
76897;SHT30;65856;52.178;21.176;2024-03-02T03:52:10;7.46;79.57
76897;SHT30;65856;52.178;21.176;2024-03-02T03:54:36;7.48;79.51
76897;SHT30;65856;52.178;21.176;2024-03-02T03:57:03;7.43;79.50
76897;SHT30;65856;52.178;21.176;2024-03-02T03:59:29;7.42;79.52
76897;SHT30;65856;52.178;21.176;2024-03-02T04:01:54;7.38;79.57
76897;SHT30;65856;52.178;21.176;2024-03-02T04:04:20;7.36;79.60
76897;SHT30;65856;52.178;21.176;2024-03-02T04:06:45;7.31;79.70
76897;SHT30;65856;52.178;21.176;2024-03-02T04:09:11;7.27;79.79
76897;SHT30;65856;52.178;21.176;2024-03-02T04:11:36;7.24;79.89
76897;SHT30;65856;52.178;21.176;2024-03-02T04:14:02;7.21;79.93
76897;SHT30;65856;52.178;21.176;2024-03-02T04:16:27;7.19;79.97
76897;SHT30;65856;52.178;21.176;2024-03-02T04:18:53;7.14;80.07
76897;SHT30;65856;52.178;21.176;2024-03-02T04:21:19;7.14;80.15
76897;SHT30;65856;52.178;21.176;2024-03-02T04:23:45;7.13;80.21
76897;SHT30;65856;52.178;21.176;2024-03-02T04:26:10;7.09;80.30
76897;SHT30;65856;52.178;21.176;2024-03-02T04:28:36;7.05;80.42
76897;SHT30;65856;52.178;21.176;2024-03-02T04:31:01;7.03;80.50
76897;SHT30;65856;52.178;21.176;2024-03-02T04:33:27;7.02;80.54
76897;SHT30;65856;52.178;21.176;2024-03-02T04:35:52;7.01;80.63
76897;SHT30;65856;52.178;21.176;2024-03-02T04:38:18;7.01;80.68
76897;SHT30;65856;52.178;21.176;2024-03-02T04:40:43;7.01;80.70
76897;SHT30;65856;52.178;21.176;2024-03-02T04:43:08;6.99;80.71
76897;SHT30;65856;52.178;21.176;2024-03-02T04:45:37;6.99;80.80
76897;SHT30;65856;52.178;21.176;2024-03-02T04:48:03;7.01;80.80
76897;SHT30;65856;52.178;21.176;2024-03-02T04:50:29;7.05;80.78
76897;SHT30;65856;52.178;21.176;2024-03-02T04:52:55;7.06;80.72
76897;SHT30;65856;52.178;21.176;2024-03-02T04:55:20;7.08;80.72
76897;SHT30;65856;52.178;21.176;2024-03-02T04:58:14;7.08;80.77
76897;SHT30;65856;52.178;21.176;2024-03-02T05:00:40;7.06;80.80
76897;SHT30;65856;52.178;21.176;2024-03-02T05:03:05;7.05;80.88
76897;SHT30;65856;52.178;21.176;2024-03-02T05:05:30;7.05;80.93
76897;SHT30;65856;52.178;21.176;2024-03-02T05:07:56;7.05;80.93
76897;SHT30;65856;52.178;21.176;2024-03-02T05:10:21;7.05;81.00
76897;SHT30;65856;52.178;21.176;2024-03-02T05:12:46;7.03;81.00
76897;SHT30;65856;52.178;21.176;2024-03-02T05:15:13;7.03;81.08
76897;SHT30;65856;52.178;21.176;2024-03-02T05:17:39;7.03;81.10
76897;SHT30;65856;52.178;21.176;2024-03-02T05:20:08;7.05;81.10
76897;SHT30;65856;52.178;21.176;2024-03-02T05:22:34;7.06;81.11
76897;SHT30;65856;52.178;21.176;2024-03-02T05:25:00;7.06;81.19
76897;SHT30;65856;52.178;21.176;2024-03-02T05:27:27;7.05;81.20
76897;SHT30;65856;52.178;21.176;2024-03-02T05:29:52;7.05;81.20
76897;SHT30;65856;52.178;21.176;2024-03-02T05:32:18;7.07;81.27
76897;SHT30;65856;52.178;21.176;2024-03-02T05:34:43;7.10;81.21
76897;SHT30;65856;52.178;21.176;2024-03-02T05:37:09;7.13;81.20
76897;SHT30;65856;52.178;21.176;2024-03-02T05:39:34;7.17;81.13
76897;SHT30;65856;52.178;21.176;2024-03-02T05:42:00;7.18;81.13
76897;SHT30;65856;52.178;21.176;2024-03-02T05:44:25;7.18;81.11
76897;SHT30;65856;52.178;21.176;2024-03-02T05:46:50;7.19;81.10
76897;SHT30;65856;52.178;21.176;2024-03-02T05:49:16;7.20;81.11
76897;SHT30;65856;52.178;21.176;2024-03-02T05:51:41;7.22;81.10
76897;SHT30;65856;52.178;21.176;2024-03-02T05:54:07;7.23;81.10
76897;SHT30;65856;52.178;21.176;2024-03-02T05:56:32;7.24;81.09
76897;SHT30;65856;52.178;21.176;2024-03-02T05:58:57;7.26;81.07
76897;SHT30;65856;52.178;21.176;2024-03-02T06:01:39;7.29;81.02
76897;SHT30;65856;52.178;21.176;2024-03-02T06:04:05;7.28;81.02
76897;SHT30;65856;52.178;21.176;2024-03-02T06:06:31;7.30;81.00
76897;SHT30;65856;52.178;21.176;2024-03-02T06:08:59;7.31;81.00
76897;SHT30;65856;52.178;21.176;2024-03-02T06:11:37;7.32;81.00
76897;SHT30;65856;52.178;21.176;2024-03-02T06:14:04;7.32;80.99
76897;SHT30;65856;52.178;21.176;2024-03-02T06:16:31;7.33;81.00
76897;SHT30;65856;52.178;21.176;2024-03-02T06:18:57;7.32;81.00
76897;SHT30;65856;52.178;21.176;2024-03-02T06:21:23;7.34;81.00
76897;SHT30;65856;52.178;21.176;2024-03-02T06:23:49;7.36;81.00
76897;SHT30;65856;52.178;21.176;2024-03-02T06:26:15;7.37;81.00
76897;SHT30;65856;52.178;21.176;2024-03-02T06:28:40;7.39;81.00
76897;SHT30;65856;52.178;21.176;2024-03-02T06:31:06;7.40;81.00
76897;SHT30;65856;52.178;21.176;2024-03-02T06:33:31;7.43;80.98
76897;SHT30;65856;52.178;21.176;2024-03-02T06:35:57;7.44;80.96
76897;SHT30;65856;52.178;21.176;2024-03-02T06:38:22;7.43;80.95
76897;SHT30;65856;52.178;21.176;2024-03-02T06:40:48;7.44;80.93
76897;SHT30;65856;52.178;21.176;2024-03-02T06:43:13;7.45;80.93
76897;SHT30;65856;52.178;21.176;2024-03-02T06:45:38;7.48;80.93
76897;SHT30;65856;52.178;21.176;2024-03-02T06:48:04;7.49;80.91
76897;SHT30;65856;52.178;21.176;2024-03-02T06:50:30;7.51;80.90
76897;SHT30;65856;52.178;21.176;2024-03-02T06:52:55;7.53;80.92
76897;SHT30;65856;52.178;21.176;2024-03-02T06:55:21;7.54;80.90
76897;SHT30;65856;52.178;21.176;2024-03-02T06:57:47;7.53;80.86
76897;SHT30;65856;52.178;21.176;2024-03-02T07:00:12;7.54;80.80
76897;SHT30;65856;52.178;21.176;2024-03-02T07:02:39;7.55;80.81
76897;SHT30;65856;52.178;21.176;2024-03-02T07:05:06;7.57;80.85
76897;SHT30;65856;52.178;21.176;2024-03-02T07:07:33;7.58;80.80
76897;SHT30;65856;52.178;21.176;2024-03-02T07:10:00;7.60;80.79
76897;SHT30;65856;52.178;21.176;2024-03-02T07:12:26;7.62;80.74
76897;SHT30;65856;52.178;21.176;2024-03-02T07:14:51;7.64;80.71
76897;SHT30;65856;52.178;21.176;2024-03-02T07:17:43;7.67;80.70
76897;SHT30;65856;52.178;21.176;2024-03-02T07:20:09;7.69;80.69
76897;SHT30;65856;52.178;21.176;2024-03-02T07:22:37;7.71;80.62
76897;SHT30;65856;52.178;21.176;2024-03-02T07:25:02;7.72;80.61
76897;SHT30;65856;52.178;21.176;2024-03-02T07:27:28;7.74;80.60
76897;SHT30;65856;52.178;21.176;2024-03-02T07:29:56;7.76;80.55
76897;SHT30;65856;52.178;21.176;2024-03-02T07:32:21;7.78;80.58
76897;SHT30;65856;52.178;21.176;2024-03-02T07:34:47;7.80;80.50
76897;SHT30;65856;52.178;21.176;2024-03-02T07:37:12;7.84;80.49
76897;SHT30;65856;52.178;21.176;2024-03-02T07:39:38;7.88;80.42
76897;SHT30;65856;52.178;21.176;2024-03-02T07:42:03;7.92;80.36
76897;SHT30;65856;52.178;21.176;2024-03-02T07:44:29;7.95;80.29
76897;SHT30;65856;52.178;21.176;2024-03-02T07:46:55;7.97;80.20
76897;SHT30;65856;52.178;21.176;2024-03-02T07:49:20;8.02;80.21
76897;SHT30;65856;52.178;21.176;2024-03-02T07:51:45;8.06;80.19
76897;SHT30;65856;52.178;21.176;2024-03-02T07:54:11;8.11;80.09
76897;SHT30;65856;52.178;21.176;2024-03-02T07:56:37;8.13;79.98
76897;SHT30;65856;52.178;21.176;2024-03-02T07:59:02;8.15;80.00
76897;SHT30;65856;52.178;21.176;2024-03-02T08:01:29;8.18;79.93
76897;SHT30;65856;52.178;21.176;2024-03-02T08:04:00;8.19;79.89
76897;SHT30;65856;52.178;21.176;2024-03-02T08:06:28;8.20;79.75
76897;SHT30;65856;52.178;21.176;2024-03-02T08:09:00;8.20;79.74
76897;SHT30;65856;52.178;21.176;2024-03-02T08:11:26;8.19;79.65
76897;SHT30;65856;52.178;21.176;2024-03-02T08:13:52;8.20;79.64
76897;SHT30;65856;52.178;21.176;2024-03-02T08:16:20;8.21;79.64
76897;SHT30;65856;52.178;21.176;2024-03-02T08:18:49;8.23;79.60
76897;SHT30;65856;52.178;21.176;2024-03-02T08:21:15;8.27;79.58
76897;SHT30;65856;52.178;21.176;2024-03-02T08:23:44;8.28;79.50
76897;SHT30;65856;52.178;21.176;2024-03-02T08:26:10;8.34;79.62
76897;SHT30;65856;52.178;21.176;2024-03-02T08:28:36;8.41;79.42
76897;SHT30;65856;52.178;21.176;2024-03-02T08:31:02;8.44;79.24
76897;SHT30;65856;52.178;21.176;2024-03-02T08:33:30;8.49;79.12
76897;SHT30;65856;52.178;21.176;2024-03-02T08:35:56;8.55;79.08
76897;SHT30;65856;52.178;21.176;2024-03-02T08:38:21;8.56;79.03
76897;SHT30;65856;52.178;21.176;2024-03-02T08:40:47;8.61;78.97
76897;SHT30;65856;52.178;21.176;2024-03-02T08:43:16;8.61;78.76
76897;SHT30;65856;52.178;21.176;2024-03-02T08:45:41;8.63;78.80
76897;SHT30;65856;52.178;21.176;2024-03-02T08:48:07;8.66;78.70
76897;SHT30;65856;52.178;21.176;2024-03-02T08:50:33;8.66;78.63
76897;SHT30;65856;52.178;21.176;2024-03-02T08:53:05;8.67;78.60
76897;SHT30;65856;52.178;21.176;2024-03-02T08:55:31;8.68;78.60
76897;SHT30;65856;52.178;21.176;2024-03-02T08:57:56;8.69;78.60
76897;SHT30;65856;52.178;21.176;2024-03-02T09:00:22;8.72;78.58
76897;SHT30;65856;52.178;21.176;2024-03-02T09:02:48;8.74;78.51
76897;SHT30;65856;52.178;21.176;2024-03-02T09:05:14;8.76;78.52
76897;SHT30;65856;52.178;21.176;2024-03-02T09:07:40;8.77;78.49
76897;SHT30;65856;52.178;21.176;2024-03-02T09:10:05;8.78;78.40
76897;SHT30;65856;52.178;21.176;2024-03-02T09:12:32;8.80;78.38
76897;SHT30;65856;52.178;21.176;2024-03-02T09:14:58;8.83;78.27
76897;SHT30;65856;52.178;21.176;2024-03-02T09:17:25;8.83;78.11
76897;SHT30;65856;52.178;21.176;2024-03-02T09:19:50;8.82;78.11
76897;SHT30;65856;52.178;21.176;2024-03-02T09:22:19;8.82;78.11
76897;SHT30;65856;52.178;21.176;2024-03-02T09:24:45;8.84;78.17
76897;SHT30;65856;52.178;21.176;2024-03-02T09:27:10;8.84;78.02
76897;SHT30;65856;52.178;21.176;2024-03-02T09:29:36;8.83;78.01
76897;SHT30;65856;52.178;21.176;2024-03-02T09:32:02;8.83;78.00
76897;SHT30;65856;52.178;21.176;2024-03-02T09:34:28;8.85;78.02
76897;SHT30;65856;52.178;21.176;2024-03-02T09:36:53;8.86;78.00
76897;SHT30;65856;52.178;21.176;2024-03-02T09:39:18;8.88;77.92
76897;SHT30;65856;52.178;21.176;2024-03-02T09:41:44;8.89;77.87
76897;SHT30;65856;52.178;21.176;2024-03-02T09:44:10;8.91;77.81
76897;SHT30;65856;52.178;21.176;2024-03-02T09:46:35;8.94;77.74
76897;SHT30;65856;52.178;21.176;2024-03-02T09:49:01;8.96;77.70
76897;SHT30;65856;52.178;21.176;2024-03-02T09:51:27;9.00;77.72
76897;SHT30;65856;52.178;21.176;2024-03-02T09:53:54;9.05;77.70
76897;SHT30;65856;52.178;21.176;2024-03-02T09:56:21;9.08;77.56
76897;SHT30;65856;52.178;21.176;2024-03-02T09:58:46;9.12;77.49
76897;SHT30;65856;52.178;21.176;2024-03-02T10:01:12;9.15;77.44
76897;SHT30;65856;52.178;21.176;2024-03-02T10:03:38;9.17;77.38
76897;SHT30;65856;52.178;21.176;2024-03-02T10:06:23;9.20;77.33
76897;SHT30;65856;52.178;21.176;2024-03-02T10:08:53;9.28;77.36
76897;SHT30;65856;52.178;21.176;2024-03-02T10:11:26;9.33;77.17
76897;SHT30;65856;52.178;21.176;2024-03-02T10:16:36;9.38;77.06
76897;SHT30;65856;52.178;21.176;2024-03-02T10:24:18;9.56;76.91
76897;SHT30;65856;52.178;21.176;2024-03-02T10:26:44;9.62;76.83
76897;SHT30;65856;52.178;21.176;2024-03-02T10:29:11;9.67;76.63
76897;SHT30;65856;52.178;21.176;2024-03-02T10:31:41;9.69;76.52
76897;SHT30;65856;52.178;21.176;2024-03-02T10:34:09;9.73;76.38
76897;SHT30;65856;52.178;21.176;2024-03-02T10:36:36;9.78;76.35
76897;SHT30;65856;52.178;21.176;2024-03-02T10:39:03;9.83;76.15
76897;SHT30;65856;52.178;21.176;2024-03-02T10:41:33;9.89;76.20
76897;SHT30;65856;52.178;21.176;2024-03-02T10:44:07;9.98;76.15
76897;SHT30;65856;52.178;21.176;2024-03-02T10:46:35;10.03;75.91
76897;SHT30;65856;52.178;21.176;2024-03-02T10:49:02;10.07;75.77
76897;SHT30;65856;52.178;21.176;2024-03-02T10:51:30;10.12;75.66
76897;SHT30;65856;52.178;21.176;2024-03-02T10:53:58;10.15;75.60
76897;SHT30;65856;52.178;21.176;2024-03-02T10:59:02;10.20;75.30
76897;SHT30;65856;52.178;21.176;2024-03-02T11:01:29;10.24;75.34
76897;SHT30;65856;52.178;21.176;2024-03-02T11:03:57;10.31;75.20
76897;SHT30;65856;52.178;21.176;2024-03-02T11:06:25;10.34;75.05
76897;SHT30;65856;52.178;21.176;2024-03-02T11:08:53;10.38;75.11
76897;SHT30;65856;52.178;21.176;2024-03-02T11:11:26;10.44;75.03
76897;SHT30;65856;52.178;21.176;2024-03-02T11:13:55;10.49;74.90
76897;SHT30;65856;52.178;21.176;2024-03-02T11:16:33;10.53;74.71
76897;SHT30;65856;52.178;21.176;2024-03-02T11:19:02;10.57;74.73
76897;SHT30;65856;52.178;21.176;2024-03-02T11:21:29;10.62;74.72
76897;SHT30;65856;52.178;21.176;2024-03-02T11:23:57;10.67;74.44
76897;SHT30;65856;52.178;21.176;2024-03-02T11:26:23;10.67;74.27
76897;SHT30;65856;52.178;21.176;2024-03-02T11:28:49;10.70;74.14
76897;SHT30;65856;52.178;21.176;2024-03-02T11:31:16;10.73;74.04
76897;SHT30;65856;52.178;21.176;2024-03-02T11:33:42;10.74;73.84
76897;SHT30;65856;52.178;21.176;2024-03-02T11:36:08;10.75;73.84
76897;SHT30;65856;52.178;21.176;2024-03-02T11:38:35;10.78;73.72
76897;SHT30;65856;52.178;21.176;2024-03-02T11:41:02;10.79;73.68
76897;SHT30;65856;52.178;21.176;2024-03-02T11:43:37;10.80;73.74
76897;SHT30;65856;52.178;21.176;2024-03-02T11:46:04;10.87;73.76
76897;SHT30;65856;52.178;21.176;2024-03-02T11:48:34;10.93;73.73
76897;SHT30;65856;52.178;21.176;2024-03-02T11:51:02;10.96;73.56
76897;SHT30;65856;52.178;21.176;2024-03-02T11:53:28;11.01;73.65
76897;SHT30;65856;52.178;21.176;2024-03-02T11:55:56;11.07;73.41
76897;SHT30;65856;52.178;21.176;2024-03-02T11:58:23;11.13;73.22
76897;SHT30;65856;52.178;21.176;2024-03-02T12:00:53;11.20;73.18
76897;SHT30;65856;52.178;21.176;2024-03-02T12:03:21;11.26;72.87
76897;SHT30;65856;52.178;21.176;2024-03-02T12:05:50;11.27;72.59
76897;SHT30;65856;52.178;21.176;2024-03-02T12:08:18;11.30;72.64
76897;SHT30;65856;52.178;21.176;2024-03-02T12:10:43;11.35;72.59
76897;SHT30;65856;52.178;21.176;2024-03-02T12:13:22;11.38;72.37
76897;SHT30;65856;52.178;21.176;2024-03-02T12:15:53;11.39;72.19
76897;SHT30;65856;52.178;21.176;2024-03-02T12:18:21;11.38;72.11
76897;SHT30;65856;52.178;21.176;2024-03-02T12:20:48;11.39;71.96
76897;SHT30;65856;52.178;21.176;2024-03-02T12:23:17;11.38;71.84
76897;SHT30;65856;52.178;21.176;2024-03-02T12:25:43;11.37;71.84
76897;SHT30;65856;52.178;21.176;2024-03-02T12:28:09;11.37;71.83
76897;SHT30;65856;52.178;21.176;2024-03-02T12:30:35;11.39;71.74
76897;SHT30;65856;52.178;21.176;2024-03-02T12:33:01;11.41;71.76
76897;SHT30;65856;52.178;21.176;2024-03-02T12:35:26;11.43;71.59
76897;SHT30;65856;52.178;21.176;2024-03-02T12:37:52;11.41;71.48
76897;SHT30;65856;52.178;21.176;2024-03-02T12:40:19;11.38;71.47
76897;SHT30;65856;52.178;21.176;2024-03-02T12:42:47;11.40;71.62
76897;SHT30;65856;52.178;21.176;2024-03-02T12:45:14;11.43;71.83
76897;SHT30;65856;52.178;21.176;2024-03-02T12:47:41;11.48;71.72
76897;SHT30;65856;52.178;21.176;2024-03-02T12:50:07;11.51;71.64
76897;SHT30;65856;52.178;21.176;2024-03-02T12:52:35;11.53;71.44
76897;SHT30;65856;52.178;21.176;2024-03-02T12:55:01;11.52;71.22
76897;SHT30;65856;52.178;21.176;2024-03-02T12:57:30;11.49;71.21
76897;SHT30;65856;52.178;21.176;2024-03-02T13:00:01;11.46;71.28
76897;SHT30;65856;52.178;21.176;2024-03-02T13:02:39;11.47;71.29
76897;SHT30;65856;52.178;21.176;2024-03-02T13:05:06;11.47;71.18
76897;SHT30;65856;52.178;21.176;2024-03-02T13:07:39;11.43;71.06
76897;SHT30;65856;52.178;21.176;2024-03-02T13:10:06;11.39;70.94
76897;SHT30;65856;52.178;21.176;2024-03-02T13:12:35;11.34;70.85
76897;SHT30;65856;52.178;21.176;2024-03-02T13:15:02;11.29;70.93
76897;SHT30;65856;52.178;21.176;2024-03-02T13:17:28;11.26;71.13
76897;SHT30;65856;52.178;21.176;2024-03-02T13:19:57;11.27;71.10
76897;SHT30;65856;52.178;21.176;2024-03-02T13:22:26;11.23;71.07
76897;SHT30;65856;52.178;21.176;2024-03-02T13:24:52;11.20;71.19
76897;SHT30;65856;52.178;21.176;2024-03-02T13:27:19;11.17;71.29
76897;SHT30;65856;52.178;21.176;2024-03-02T13:29:45;11.16;71.40
76897;SHT30;65856;52.178;21.176;2024-03-02T13:32:14;11.15;71.43
76897;SHT30;65856;52.178;21.176;2024-03-02T13:34:41;11.11;71.45
76897;SHT30;65856;52.178;21.176;2024-03-02T13:37:07;11.07;71.48
76897;SHT30;65856;52.178;21.176;2024-03-02T13:39:32;11.02;71.56
76897;SHT30;65856;52.178;21.176;2024-03-02T13:42:04;11.00;71.59
76897;SHT30;65856;52.178;21.176;2024-03-02T13:44:32;10.94;71.67
76897;SHT30;65856;52.178;21.176;2024-03-02T13:46:59;10.90;71.78
76897;SHT30;65856;52.178;21.176;2024-03-02T13:49:25;10.87;71.83
76897;SHT30;65856;52.178;21.176;2024-03-02T13:51:58;10.83;71.95
76897;SHT30;65856;52.178;21.176;2024-03-02T13:54:38;10.80;71.89
76897;SHT30;65856;52.178;21.176;2024-03-02T13:57:07;10.75;72.07
76897;SHT30;65856;52.178;21.176;2024-03-02T13:59:34;10.74;72.19
76897;SHT30;65856;52.178;21.176;2024-03-02T14:02:04;10.74;72.20
76897;SHT30;65856;52.178;21.176;2024-03-02T14:04:31;10.73;72.28
76897;SHT30;65856;52.178;21.176;2024-03-02T14:06:58;10.71;72.22
76897;SHT30;65856;52.178;21.176;2024-03-02T14:09:25;10.70;72.30
76897;SHT30;65856;52.178;21.176;2024-03-02T14:11:50;10.76;72.20
76897;SHT30;65856;52.178;21.176;2024-03-02T14:14:17;10.79;72.02
76897;SHT30;65856;52.178;21.176;2024-03-02T14:16:43;10.75;72.00
76897;SHT30;65856;52.178;21.176;2024-03-02T14:19:09;10.67;72.08
76897;SHT30;65856;52.178;21.176;2024-03-02T14:21:35;10.66;72.30
76897;SHT30;65856;52.178;21.176;2024-03-02T14:24:01;10.61;72.29
76897;SHT30;65856;52.178;21.176;2024-03-02T14:26:26;10.55;72.43
76897;SHT30;65856;52.178;21.176;2024-03-02T14:28:53;10.52;72.55
76897;SHT30;65856;52.178;21.176;2024-03-02T14:31:19;10.47;72.65
76897;SHT30;65856;52.178;21.176;2024-03-02T14:33:45;10.44;72.81
76897;SHT30;65856;52.178;21.176;2024-03-02T14:36:11;10.43;72.86
76897;SHT30;65856;52.178;21.176;2024-03-02T14:38:37;10.41;72.94
76897;SHT30;65856;52.178;21.176;2024-03-02T14:41:03;10.40;73.00
76897;SHT30;65856;52.178;21.176;2024-03-02T14:43:29;10.37;72.91
76897;SHT30;65856;52.178;21.176;2024-03-02T14:45:55;10.32;73.02
76897;SHT30;65856;52.178;21.176;2024-03-02T14:48:21;10.27;73.11
76897;SHT30;65856;52.178;21.176;2024-03-02T14:50:47;10.22;73.21
76897;SHT30;65856;52.178;21.176;2024-03-02T14:53:12;10.20;73.36
76897;SHT30;65856;52.178;21.176;2024-03-02T14:55:38;10.19;73.45
76897;SHT30;65856;52.178;21.176;2024-03-02T14:58:03;10.21;73.51
76897;SHT30;65856;52.178;21.176;2024-03-02T15:00:29;10.20;73.57
76897;SHT30;65856;52.178;21.176;2024-03-02T15:02:54;10.19;73.60
76897;SHT30;65856;52.178;21.176;2024-03-02T15:05:20;10.19;73.62
76897;SHT30;65856;52.178;21.176;2024-03-02T15:07:45;10.19;73.68
76897;SHT30;65856;52.178;21.176;2024-03-02T15:10:10;10.17;73.70
76897;SHT30;65856;52.178;21.176;2024-03-02T15:12:36;10.14;73.75
76897;SHT30;65856;52.178;21.176;2024-03-02T15:15:02;10.10;73.81
76897;SHT30;65856;52.178;21.176;2024-03-02T15:17:28;10.09;73.90
76897;SHT30;65856;52.178;21.176;2024-03-02T15:19:54;10.08;73.90
76897;SHT30;65856;52.178;21.176;2024-03-02T15:22:19;10.06;73.98
76897;SHT30;65856;52.178;21.176;2024-03-02T15:24:45;10.07;74.00
76897;SHT30;65856;52.178;21.176;2024-03-02T15:27:10;10.07;74.05
76897;SHT30;65856;52.178;21.176;2024-03-02T15:29:36;10.05;74.10
76897;SHT30;65856;52.178;21.176;2024-03-02T15:32:02;10.04;74.14
76897;SHT30;65856;52.178;21.176;2024-03-02T15:34:32;10.02;74.21
76897;SHT30;65856;52.178;21.176;2024-03-02T15:36:58;9.99;74.30
76897;SHT30;65856;52.178;21.176;2024-03-02T15:39:25;9.97;74.33